Terminal Aerodrome Forecast
Issued by NWS Memphis, TN

Home | Current Version | Previous Version | Text Only | Print | Product List | Glossary On
Versions: 1 2 3 4 5 6 7 8 9 10 11 12 13 14 15
000
FTUS44 KMEG 101730
TAFMKL
TAF
KMKL 101730Z 1018/1118 28008KT P6SM SCT050 SCT250
      TEMPO 1020/1023 3SM -SN BKN025
     FM110100 12004KT P6SM FEW050 SCT100
     FM111200 06007KT P6SM FEW050 SCT250=

USA.gov is the U.S. government's official web portal to all federal, state and local government web resources and services.